METAR Data
IDs: Format: Raw Decoded Include TAF

Data at: 2120 UTC 19 May 2019

KMPZ 192115Z AUTO 27012G18KT 10SM SCT025 BKN036 OVC044 17/13 A2976 RMK AO2
KMPZ 192055Z AUTO 26016G23KT 10SM SCT023 OVC032 17/13 A2975 RMK AO2
KMPZ 192035Z AUTO 27018G27KT 10SM SCT024 BKN029 OVC035 17/13 A2974 RMK AO2
KMPZ 192015Z AUTO 28018G24KT 10SM BKN024 OVC034 18/15 A2973 RMK AO2
KMPZ 191955Z AUTO 28014G23KT 10SM SCT026 BKN033 BKN041 20/15 A2971 RMK AO2
KMPZ 191935Z AUTO 27015G23KT 10SM SCT026 BKN035 20/16 A2971 RMK AO2
KMPZ 191915Z AUTO 27013G18KT 10SM SCT015 SCT029 OVC035 20/16 A2970 RMK AO2
KMPZ 191855Z AUTO 29012G17KT 5SM -DZ SCT015 BKN033 OVC047 18/16 A2970 RMK AO2
KMPZ 191835Z AUTO 27009G16KT 10SM SCT027 SCT031 BKN070 21/15 A2968 RMK AO2
KMPZ 191815Z AUTO 26015G18KT 10SM SCT025 SCT040 BKN070 21/16 A2968 RMK AO2
KMPZ 191755Z AUTO 28011G16KT 10SM BKN020 BKN038 OVC050 19/16 A2968 RMK AO2
KMPZ 191735Z AUTO 28011G16KT 10SM SCT018 BKN022 BKN036 20/17 A2968 RMK AO2
KMPZ 191715Z AUTO 27014KT 10SM SCT016 SCT024 OVC110 18/16 A2967 RMK AO2
KMPZ 191655Z AUTO 28010KT 5SM BR SCT017 BKN024 OVC040 18/16 A2966 RMK AO2
KMPZ 191635Z AUTO 29012KT 10SM BKN017 BKN025 BKN033 18/16 A2965 RMK AO2
KMPZ 191615Z AUTO 28010G19KT 10SM BKN015 BKN021 18/17 A2964 RMK AO2
KMPZ 191555Z AUTO 26010G15KT 10SM OVC012 18/17 A2963 RMK AO2
KMPZ 191535Z AUTO 27009KT 10SM BKN012 OVC019 17/17 A2962 RMK AO2
KMPZ 191515Z AUTO 27009G15KT 10SM SCT010 OVC017 17/17 A2962 RMK AO2
KMPZ 191455Z AUTO 27010KT 7SM -DZ SCT011 BKN027 OVC037 17/17 A2962 RMK AO2 P0015
KMPZ 191435Z AUTO 23010G16KT 10SM -RA SCT014 BKN030 OVC040 16/16 A2960 RMK AO2 P0015
KMPZ 191415Z AUTO 21015KT 5SM +RA SCT018 BKN035 OVC048 17/17 A2960 RMK AO2 P0009
KMPZ 191355Z AUTO 21009KT 7SM -RA SCT009 BKN021 OVC080 17/17 A2959 RMK AO2 P0004
KMPZ 191335Z AUTO 21011KT 7SM +RA BKN009 OVC013 17/17 A2958 RMK AO2 P0002
KMPZ 191315Z AUTO 19010KT 10SM BKN009 OVC019 18/18 A2957 RMK AO2
KMPZ 191255Z AUTO 20009KT 5SM BR SCT006 BKN012 OVC028 17/17 A2956 RMK AO2
KMPZ 191235Z AUTO 20009KT 10SM SCT009 SCT014 OVC028 17/17 A2956 RMK AO2
KMPZ 191215Z AUTO 19008KT 10SM SCT012 OVC026 17/17 A2955 RMK AO2
KMPZ 191155Z AUTO 19009KT 10SM SCT008 BKN012 OVC026 17/17 A2956 RMK AO2
KMPZ 191135Z AUTO 19009KT 10SM BKN008 BKN013 OVC090 17/17 A2957 RMK AO2
KMPZ 191115Z AUTO 19009KT 10SM -RA BKN008 BKN011 OVC025 17/17 A2956 RMK AO2
KMPZ 191055Z AUTO 19010KT 10SM SCT012 BKN019 OVC090 17/17 A2956 RMK AO2
KMPZ 191035Z AUTO 19010KT 10SM SCT010 BKN019 OVC110 17/17 A2956 RMK AO2
KMPZ 191015Z AUTO 20009KT 10SM -DZ BKN017 BKN022 BKN100 17/17 A2957 RMK AO2
KMPZ 190955Z AUTO 19007KT 10SM -RA BKN015 OVC100 17/17 A2956 RMK AO2
KMPZ 190935Z AUTO 19009KT 10SM BKN015 BKN024 OVC110 17/17 A2957 RMK AO2
KMPZ 190915Z AUTO 21007KT 10SM SCT016 BKN022 OVC110 17/17 A2957 RMK AO2
KMPZ 190855Z AUTO 21008KT 10SM BKN020 OVC039 17/17 A2957 RMK AO2
KMPZ 190835Z AUTO 21009G15KT 10SM BKN016 BKN022 OVC039 17/17 A2956 RMK AO2
KMPZ 190815Z AUTO 21012KT 10SM OVC016 18/18 A2956 RMK AO2
KMPZ 190755Z AUTO 21013KT 10SM OVC012 18/18 A2955 RMK AO2
KMPZ 190735Z AUTO 22011G19KT 10SM OVC012 18/18 A2955 RMK AO2
KMPZ 190715Z AUTO 21013G16KT 10SM OVC014 18/18 A2956 RMK AO2
KMPZ 190655Z AUTO 21012KT 10SM BKN014 OVC018 18/18 A2956 RMK AO2
KMPZ 190635Z AUTO 21010G14KT 10SM BKN012 OVC018 18/18 A2956 RMK AO2
KMPZ 190615Z AUTO 21012KT 10SM OVC013 18/18 A2958 RMK AO2
KMPZ 190555Z AUTO 20015KT 10SM SCT008 OVC013 18/18 A2958 RMK AO2
KMPZ 190535Z AUTO 21013G18KT 10SM BKN011 18/18 A2958 RMK AO2
KMPZ 190515Z AUTO 20015G19KT 10SM SCT011 18/18 A2957 RMK AO2
KMPZ 190455Z AUTO 19016G21KT 10SM CLR 18/18 A2957 RMK AO2
KMPZ 190435Z AUTO 18014G19KT 10SM SCT100 18/18 A2956 RMK AO2
KMPZ 190415Z AUTO 18011KT 10SM BKN100 18/18 A2957 RMK AO2
KMPZ 190355Z AUTO 14009KT 10SM BKN090 BKN120 18/18 A2955 RMK AO2
KMPZ 190335Z AUTO 18003KT 10SM BKN100 OVC120 18/18 A2958 RMK AO2
KMPZ 190315Z AUTO 15004KT 10SM BKN110 18/18 A2958 RMK AO2
KMPZ 190255Z AUTO 13006KT 10SM SCT075 SCT090 BKN120 18/18 A2958 RMK AO2 P0006
KMPZ 190235Z AUTO 13005KT 10SM RA SCT029 BKN060 OVC110 18/18 A2958 RMK AO2 P0006
KMPZ 190215Z AUTO 17005KT 7SM RA SCT031 BKN039 OVC049 18/18 A2961 RMK AO2 P0004
KMPZ 190155Z AUTO 22008G12KT 4SM RA SCT015 BKN037 OVC060 19/18 A2962 RMK AO2 P0008
KMPZ 190135Z AUTO 20020G27KT 10SM -RA BKN060 BKN070 BKN080 21/20 A2963 RMK AO2
KMPZ 190115Z AUTO 13010G14KT 10SM SCT060 SCT070 SCT110 21/20 A2959 RMK AO2
KMPZ 190055Z AUTO 13009KT 10SM CLR 21/20 A2959 RMK AO2
KMPZ 190035Z AUTO 14009KT 10SM SCT110 21/20 A2960 RMK AO2
KMPZ 190015Z AUTO 14010KT 10SM SCT090 OVC110 21/20 A2960 RMK AO2
KMPZ 182355Z AUTO 13008KT 10SM SCT080 OVC100 21/20 A2960 RMK AO2
KMPZ 182335Z AUTO 13005KT 10SM BKN080 OVC100 21/19 A2962 RMK AO2
KMPZ 182315Z AUTO 11005KT 10SM BKN080 OVC090 20/18 A2962 RMK AO2
KMPZ 182255Z AUTO 08004KT 10SM SCT060 BKN075 OVC095 20/18 A2963 RMK AO2 P0018
KMPZ 182235Z AUTO 09006KT 10SM SCT050 OVC060 19/18 A2964 RMK AO2 P0018
KMPZ 182215Z AUTO 14007KT 7SM -RA SCT007 SCT014 OVC050 19/18 A2966 RMK AO2 P0013
KMPZ 182155Z AUTO 18021G44KT 1 1/2SM +RA SCT006 BKN026 OVC036 20/18 A2969 RMK AO2 P0025
KMPZ 182135Z AUTO 18021G30KT 7SM RA SCT013 BKN050 OVC075 21/19 A2966 RMK AO2
KMPZ 182115Z AUTO 18020G24KT 10SM SCT040 BKN049 OVC055 22/20 A2968 RMK AO2
KMPZ 182055Z AUTO 18020G25KT 10SM OVC045 23/20 A2967 RMK AO2
KMPZ 182035Z AUTO 18018G26KT 10SM BKN039 23/20 A2966 RMK AO2
KMPZ 182015Z AUTO 17020G25KT 10SM SCT037 23/20 A2966 RMK AO2
KMPZ 181955Z AUTO 18020G29KT 10SM CLR 24/21 A2967 RMK AO2
KMPZ 181935Z AUTO 19022G31KT 10SM CLR 23/20 A2966 RMK AO2
KMPZ 181915Z AUTO 18023G28KT 10SM SCT014 23/21 A2966 RMK AO2
KMPZ 181855Z AUTO 18016G22KT 10SM BKN012 BKN017 22/21 A2966 RMK AO2
KMPZ 181835Z AUTO 18013G20KT 10SM SCT010 22/21 A2965 RMK AO2
KMPZ 181815Z AUTO 18012G20KT 10SM CLR 21/20 A2963 RMK AO2
KMPZ 181755Z AUTO 17016KT 10SM CLR 21/21 A2965 RMK AO2
KMPZ 181735Z AUTO 17012KT 10SM CLR 21/21 A2967 RMK AO2
KMPZ 181715Z AUTO 17012KT 10SM CLR 20/20 A2969 RMK AO2
KMPZ 181655Z AUTO 18008KT 10SM SCT006 20/20 A2972 RMK AO2
KMPZ 181635Z AUTO 16011KT 10SM SCT006 SCT090 BKN120 20/20 A2971 RMK AO2
KMPZ 181615Z AUTO 14010KT 10SM SCT120 19/19 A2969 RMK AO2
KMPZ 181555Z AUTO 00000KT 10SM CLR 19/19 A2971 RMK AO2 P0001
KMPZ 181535Z AUTO 16006KT 10SM SCT100 SCT120 18/18 A2971 RMK AO2 P0001
KMPZ 181515Z AUTO 21007KT 10SM -RA SCT034 SCT060 BKN070 18/18 A2973 RMK AO2 P0001
KMPZ 181455Z AUTO 23010KT 7SM -RA SCT027 BKN037 OVC060 18/18 A2974 RMK AO2 P0001
KMPZ 181435Z AUTO 23010KT 10SM -RA SCT023 BKN028 BKN110 19/18 A2975 RMK AO2
KMPZ 181415Z AUTO 23013G16KT 10SM SCT037 SCT075 BKN090 19/18 A2974 RMK AO2
KMPZ 181355Z AUTO 22010KT 10SM -DZ BKN039 BKN045 OVC070 20/18 A2974 RMK AO2 P0005
KMPZ 181335Z AUTO 21008G17KT 5SM -RA BKN039 OVC048 20/17 A2973 RMK AO2 P0005
KMPZ 181315Z AUTO 22007G12KT 10SM -RA BKN039 BKN050 OVC085 21/17 A2971 RMK AO2
KMPZ 181255Z AUTO 17012KT 10SM SCT044 SCT050 BKN060 21/17 A2968 RMK AO2
KMPZ 181235Z AUTO 17011KT 10SM SCT060 SCT090 21/18 A2970 RMK AO2
KMPZ 181215Z AUTO 16009KT 10SM SCT090 20/18 A2971 RMK AO2
KMPZ 181155Z AUTO 15009KT 10SM CLR 18/18 A2972 RMK AO2
KMPZ 181135Z AUTO 15008KT 10SM SCT065 SCT075 17/17 A2973 RMK AO2
KMPZ 181115Z AUTO 15007KT 10SM SCT065 16/16 A2973 RMK AO2
KMPZ 181055Z AUTO 15004KT 10SM CLR 15/15 A2975 RMK AO2
KMPZ 181035Z AUTO 14004KT 7SM CLR 15/15 A2975 RMK AO2
KMPZ 181015Z AUTO 13004KT 7SM CLR 15/15 A2975 RMK AO2
KMPZ 180955Z AUTO 13004KT 7SM CLR 15/15 A2975 RMK AO2
KMPZ 180935Z AUTO 13006KT 10SM CLR 15/15 A2974 RMK AO2